Wednesday, January 17, 2018, 9:52 AM EST
Back to Local

KDKK, Chautauqua County/dunkirk

Location: Dunkirk, NY, United States Lat: 42.5
Local Time: 9:52 AM EST (14:52 GMT) Lon: -79.283
Time Zone: US/Eastern Elev: 692 ft

Show me the last for .
Show Decoded

2018-01-17 09:40 METAR KDKK 171440Z AUTO 22009KT 1 3/4SM -SN BR OVC014 M12/M14 A3043 RMK AO2
                 P0000 T11171139 =
2018-01-17 09:12 METAR KDKK 171412Z AUTO 22015KT 2SM -SN OVC014 M12/M14 A3043 RMK AO2 P0000
                 T11171144 =
2018-01-17 09:02 METAR KDKK 171402Z AUTO 23011KT 1 3/4SM -SN OVC014 M12/M14 A3043 RMK AO2 P0000
                 T11171144 =
2018-01-17 08:53 METAR KDKK 171353Z AUTO 22010KT 2SM -SN BR OVC014 M12/M14 A3043 RMK AO2 SNB1255
                 SLP320 P0000 T11221144 =
2018-01-17 08:33 METAR KDKK 171333Z AUTO 21012KT 2 1/2SM -SN OVC014 M12/M15 A3043 RMK AO2 SNB1255
                 P0000 T11221150 =
2018-01-17 08:21 METAR KDKK 171321Z AUTO 22010KT 3SM -SN OVC014 M12/M15 A3043 RMK AO2 SNB1255
                 P0000 T11221150 =
2018-01-17 07:53 METAR KDKK 171253Z AUTO 23014KT 6SM HZ OVC015 M12/M16 A3043 RMK AO2 SNE38 SLP320
                 P0000 T11221156 =
2018-01-17 07:15 METAR KDKK 171215Z AUTO 23011G17KT 6SM -SN BKN016 BKN036 OVC060 M13/M16 A3043
                 RMK AO2 P0000 T11281156 =
2018-01-17 06:53 METAR KDKK 171153Z AUTO 22013KT 5SM -SN FEW017 SCT038 OVC055 M13/M16 A3043 RMK
                 AO2 SNB10 SLP318 P0000 60000 T11281156 11106 21128 53002 =
2018-01-17 05:53 METAR KDKK 171053Z AUTO 20010KT 7SM OVC055 M13/M16 A3042 RMK AO2 SNB33E46 SLP316
                 P0000 T11281161 =
2018-01-17 05:28 METAR KDKK 171028Z AUTO 20007KT 8SM SCT018 SCT039 OVC055 M13/M16 A3042 RMK AO2
                 T11281161 =
2018-01-17 04:53 METAR KDKK 170953Z AUTO 22008KT 8SM OVC019 M13/M16 A3042 RMK AO2 SNE0856 SLP317
                 P0000 T11281161 =
2018-01-17 03:53 METAR KDKK 170853Z AUTO 21008KT 6SM -SN OVC020 M12/M16 A3042 RMK AO2 SLP315
                 P0000 60000 T11221156 53001 =
2018-01-17 02:53 METAR KDKK 170753Z AUTO 21009KT 6SM -SN OVC022 M11/M15 A3042 RMK AO2 SNB47
                 SLP315 P0000 T11111150 =
2018-01-17 02:39 METAR KDKK 170739Z AUTO 21009KT 8SM BKN022 BKN028 OVC048 M11/M14 A3042 RMK AO2
                 T11111144 =
2018-01-17 02:11 METAR KDKK 170711Z AUTO 21010KT 9SM FEW023 SCT030 OVC046 M11/M15 A3042 RMK AO2
                 T11111150 =
2018-01-17 01:53 METAR KDKK 170653Z AUTO 20009KT 8SM BKN025 OVC045 M11/M14 A3041 RMK AO2 SNE31
                 SLP312 P0000 T11111144 =
2018-01-17 00:53 METAR KDKK 170553Z AUTO 22008KT 4SM -SN OVC020 M11/M13 A3042 RMK AO2 SLP313
                 P0000 60000 T11061133 11089 21106 58002 =
2018-01-16 23:53 METAR KDKK 170453Z AUTO 21009KT 2 1/2SM -SN OVC023 M11/M13 A3042 RMK AO2 SLP314
                 P0000 T11061133 410441106 =
2018-01-16 23:39 METAR KDKK 170439Z AUTO 21009KT 2 1/2SM -SN OVC023 M11/M13 A3042 RMK AO2 P0000
                 T11061133 =
2018-01-16 22:53 METAR KDKK 170353Z AUTO 19008KT 7SM -SN OVC024 M10/M14 A3042 RMK AO2 SNE16B50
                 SLP315 P0000 T11001139 =
2018-01-16 21:53 METAR KDKK 170253Z AUTO 23011KT 8SM -SN OVC025 M10/M14 A3042 RMK AO2 SLP315
                 P0000 60000 T11001139 51006 =
2018-01-16 20:53 METAR KDKK 170153Z AUTO 22009KT 5SM -SN BR OVC019 M10/M12 A3042 RMK AO2 SLP313
                 P0000 T11001122 =
2018-01-16 19:53 METAR KDKK 170053Z AUTO 24008KT 6SM -SN OVC016 M09/M12 A3042 RMK AO2 SLP313
                 P0000 T10941122 =
2018-01-16 18:53 METAR KDKK 162353Z AUTO 24008KT 3SM -SN OVC015 M09/M12 A3041 RMK AO2 SLP308
                 P0000 60000 T10891117 11067 21089 53013 =
2018-01-16 18:08 METAR KDKK 162308Z AUTO 23007KT 4SM -SN BR OVC015 M09/M11 A3039 RMK AO2 P0000
                 T10891111 =
2018-01-16 17:53 METAR KDKK 162253Z AUTO 24007KT 2 1/2SM -SN BR BKN015 OVC034 M09/M11 A3039 RMK
                 AO2 SLP302 P0000 T10891111 =
2018-01-16 17:25 METAR KDKK 162225Z AUTO 24009KT 2SM -SN BR OVC016 M09/M11 A3039 RMK AO2 P0000
                 T10891111 =
2018-01-16 17:18 METAR KDKK 162218Z AUTO 23009KT 1 3/4SM -SN BR OVC016 M09/M11 A3039 RMK AO2
                 P0000 T10891106 =
2018-01-16 16:53 METAR KDKK 162153Z AUTO 23008KT 1 1/2SM -SN BR OVC013 M08/M11 A3038 RMK AO2
                 SLP301 P0000 T10831106 =
2018-01-16 16:35 METAR KDKK 162135Z AUTO 23008KT 1 3/4SM -SN BR OVC012 M08/M10 A3038 RMK AO2
                 P0000 T10831100 =
2018-01-16 15:53 METAR KDKK 162053Z AUTO 23007KT 2SM -SN BR OVC012 M08/M10 A3037 RMK AO2 SLP296
                 P0000 60000 T10781100 51004 =
2018-01-16 15:21 METAR KDKK 162021Z AUTO 22009KT 1 1/4SM -SN BR OVC012 M07/M09 A3036 RMK AO2
                 P0000 T10721094 =
2018-01-16 14:53 METAR KDKK 161953Z AUTO 24008KT 1SM -SN BR OVC012 M07/M09 A3037 RMK AO2 SLP295
                 P0000 T10721089 =
2018-01-16 14:50 METAR KDKK 161950Z AUTO 24009KT 1SM -SN BR OVC010 M07/M09 A3037 RMK AO2 P0000 =
2018-01-16 14:30 METAR KDKK 161930Z AUTO 24010KT 1 1/4SM -SN BR OVC010 M07/M08 A3035 RMK AO2
                 P0000 T10671083 =
2018-01-16 14:07 METAR KDKK 161907Z AUTO 24010KT 1 1/2SM -SN BR OVC009 M07/M08 A3036 RMK AO2
                 P0000 T10671083 =
2018-01-16 13:53 METAR KDKK 161853Z AUTO 25009KT 2SM -SN BR OVC009 M07/M08 A3036 RMK AO2 SLP292
                 P0000 T10671083 =
2018-01-16 13:43 METAR KDKK 161843Z AUTO 25008KT 2 1/2SM -SN BR OVC009 M06/M08 A3035 RMK AO2
                 P0000 T10611083 =
2018-01-16 13:19 METAR KDKK 161819Z AUTO 25006KT 3SM -SN BR OVC009 M06/M08 A3035 RMK AO2 P0000
                 T10561078 =
2018-01-16 12:53 METAR KDKK 161753Z AUTO 24011KT 6SM -SN BR OVC010 M06/M08 A3036 RMK AO2 SNB53
                 SLP290 P0000 60000 T10561078 11044 21067 58012 =
2018-01-16 12:15 METAR KDKK 161715Z AUTO 25010KT 6SM BR BKN013 OVC023 M05/M07 A3037 RMK AO2
                 T10501072 =
2018-01-16 11:53 METAR KDKK 161653Z AUTO 22007KT 7SM FEW015 OVC023 M04/M07 A3038 RMK AO2 SLP297
                 T10441072 =
2018-01-16 11:26 METAR KDKK 161626Z AUTO 25007KT 10SM BKN017 OVC050 M04/M07 A3039 RMK AO2
                 T10441072 =
2018-01-16 10:53 METAR KDKK 161553Z AUTO 22005KT 10SM FEW016 BKN050 M04/M08 A3040 RMK AO2 SLP304
                 T10441078 =
2018-01-16 10:42 METAR KDKK 161542Z AUTO 23007KT 10SM FEW018 SCT023 BKN050 M04/M08 A3039 RMK AO2
                 T10441078 =
2018-01-16 09:53 METAR KDKK 161453Z AUTO 21006KT 7SM BKN029 OVC038 M05/M07 A3039 RMK AO2 SNB19E44
                 SLP302 P0000 60000 T10501072 51012 =

Support USWX by starting your Amazon purchase here.